Time;durP1;ratioP1;P1;durP2;ratioP2;P2;SDS_P1;SDS_P2;PMS_P1;PMS_P2;Temp;Humidity;BMP_temperature;BMP_pressure;BME280_temperature;BME280_humidity;BME280_pressure;Samples;Min_cycle;Max_cycle;Signal;HPM_P1;HPM_P2
2022/03/21 00:00:45;;;;;;;14.63;11.13;;;6.00;87.40;;;;;;5049795;28;20919;-68
2022/03/21 00:03:15;;;;;;;13.17;10.83;;;6.10;85.70;;;;;;5049943;28;21023;-68
2022/03/21 00:05:42;;;;;;;14.73;11.93;;;6.20;87.10;;;;;;5048926;28;20539;-67
2022/03/21 00:08:11;;;;;;;14.23;11.50;;;6.10;87.40;;;;;;5049551;28;20499;-68
2022/03/21 00:10:38;;;;;;;13.40;11.10;;;6.10;86.70;;;;;;5049775;28;20459;-68
2022/03/21 00:13:06;;;;;;;15.63;12.20;;;6.10;86.10;;;;;;5049898;28;20452;-67
2022/03/21 00:15:34;;;;;;;12.33;10.87;;;6.00;86.00;;;;;;5049534;28;20452;-68
2022/03/21 00:18:04;;;;;;;18.20;13.00;;;6.00;87.10;;;;;;5049020;28;20579;-68
2022/03/21 00:20:32;;;;;;;13.93;10.80;;;5.90;87.50;;;;;;5049642;28;20535;-68
2022/03/21 00:22:59;;;;;;;14.80;10.93;;;5.90;87.30;;;;;;5049448;28;20459;-68
2022/03/21 00:25:26;;;;;;;11.80;10.60;;;5.90;86.90;;;;;;5048703;28;20455;-68
2022/03/21 00:27:52;;;;;;;14.03;11.53;;;5.90;87.60;;;;;;5049260;28;21056;-67
2022/03/21 00:30:19;;;;;;;15.30;12.33;;;5.90;87.10;;;;;;5049374;28;20927;-67
2022/03/21 00:32:47;;;;;;;13.90;11.37;;;5.90;86.80;;;;;;5049523;28;20452;-68
2022/03/21 00:35:15;;;;;;;16.20;12.60;;;5.90;87.40;;;;;;5050852;28;20822;-68
2022/03/21 00:37:43;;;;;;;13.70;11.77;;;6.00;86.50;;;;;;5053080;28;20853;-67
2022/03/21 00:40:11;;;;;;;14.47;10.67;;;5.90;87.40;;;;;;5052994;28;20953;-68
2022/03/21 00:42:39;;;;;;;15.10;11.13;;;5.90;87.90;;;;;;5052899;28;20466;-67
2022/03/21 00:45:09;;;;;;;14.67;11.60;;;5.80;87.50;;;;;;5052306;28;20456;-68
2022/03/21 00:47:36;;;;;;;16.33;12.27;;;5.80;87.60;;;;;;5052469;28;21082;-68
2022/03/21 00:50:03;;;;;;;17.27;14.80;;;5.80;87.40;;;;;;5052781;28;20440;-68
2022/03/21 00:52:32;;;;;;;16.93;13.53;;;5.80;87.20;;;;;;5053108;28;20452;-67
2022/03/21 00:54:59;;;;;;;12.13;10.63;;;5.60;90.70;;;;;;5052110;28;20451;-69
2022/03/21 00:57:26;;;;;;;17.47;11.83;;;5.50;92.20;;;;;;5052530;28;20475;-67
2022/03/21 00:59:53;;;;;;;14.83;13.10;;;5.30;91.80;;;;;;5053292;28;20497;-67
2022/03/21 01:02:20;;;;;;;14.33;12.27;;;5.20;90.40;;;;;;5053297;28;20515;-68
2022/03/21 01:04:47;;;;;;;17.43;14.67;;;5.40;89.50;;;;;;5052280;28;20452;-67
2022/03/21 01:07:13;;;;;;;14.53;12.20;;;5.50;89.20;;;;;;5052640;28;21024;-67
2022/03/21 01:09:42;;;;;;;17.00;13.87;;;5.50;88.90;;;;;;5052542;28;20530;-67
2022/03/21 01:12:10;;;;;;;17.53;12.10;;;5.40;88.40;;;;;;5052742;28;20454;-68
2022/03/21 01:14:36;;;;;;;13.30;11.80;;;5.40;89.80;;;;;;5051767;28;20543;-67
2022/03/21 01:17:04;;;;;;;15.73;12.30;;;5.30;90.30;;;;;;5051976;28;20471;-67
2022/03/21 01:19:31;;;;;;;16.93;12.53;;;5.30;90.70;;;;;;5052115;28;20479;-67
2022/03/21 01:21:58;;;;;;;16.80;12.60;;;5.30;90.50;;;;;;5052190;28;20460;-67
2022/03/21 01:24:25;;;;;;;15.57;10.33;;;5.30;90.80;;;;;;5051663;28;20470;-68
2022/03/21 01:26:53;;;;;;;14.97;10.50;;;5.10;90.70;;;;;;5052239;28;20997;-67
2022/03/21 01:29:20;;;;;;;16.33;11.63;;;5.00;90.70;;;;;;5052037;28;20519;-67
2022/03/21 01:31:47;;;;;;;13.80;11.50;;;4.90;91.50;;;;;;5052131;28;20447;-67
2022/03/21 01:34:14;;;;;;;17.00;11.53;;;4.80;91.60;;;;;;5051625;28;20469;-68
2022/03/21 01:36:41;;;;;;;15.40;11.80;;;4.80;93.40;;;;;;5051827;28;20448;-68
2022/03/21 01:39:07;;;;;;;15.00;11.80;;;4.70;93.20;;;;;;5051813;28;21102;-67
2022/03/21 01:41:34;;;;;;;14.17;12.47;;;4.50;94.20;;;;;;5052158;28;20453;-68
2022/03/21 01:44:05;;;;;;;15.47;11.23;;;4.50;93.70;;;;;;5051905;28;20946;-67
2022/03/21 01:46:32;;;;;;;13.23;10.90;;;4.60;93.00;;;;;;5051631;28;21107;-67
2022/03/21 01:49:00;;;;;;;16.30;11.63;;;4.70;93.30;;;;;;5052194;28;20456;-68
2022/03/21 01:51:27;;;;;;;15.23;12.50;;;4.70;93.00;;;;;;5051849;28;20476;-68
2022/03/21 01:56:40;;;;;;;15.67;12.17;;;4.70;92.50;;;;;;5051852;28;20817;-67
2022/03/21 01:59:09;;;;;;;17.20;13.10;;;4.60;93.20;;;;;;5051306;28;20484;-68
2022/03/21 02:01:36;;;;;;;14.00;11.90;;;4.60;94.20;;;;;;5051829;28;20448;-67
2022/03/21 02:04:03;;;;;;;14.33;11.53;;;4.50;95.10;;;;;;5050894;28;20534;-66
2022/03/21 02:06:30;;;;;;;15.70;11.57;;;4.30;95.10;;;;;;5051651;28;20450;-67
2022/03/21 02:08:58;;;;;;;16.60;12.90;;;4.30;95.70;;;;;;5051116;28;20440;-67
2022/03/21 02:11:26;;;;;;;14.97;12.13;;;4.20;96.20;;;;;;5051564;28;20483;-67
2022/03/21 02:13:54;;;;;;;16.53;13.00;;;4.10;97.40;;;;;;5051160;28;20448;-68
2022/03/21 02:16:23;;;;;;;14.40;12.27;;;4.10;98.10;;;;;;5050609;28;20506;-67
2022/03/21 02:18:50;;;;;;;17.70;11.93;;;4.20;98.90;;;;;;5050824;28;20488;-67
2022/03/21 02:21:23;;;;;;;15.47;11.87;;;4.20;97.30;;;;;;5051427;28;20474;-67
2022/03/21 02:23:56;;;;;;;13.40;11.33;;;4.30;97.20;;;;;;5051096;28;20818;-66
2022/03/21 02:26:26;;;;;;;16.80;12.50;;;4.40;96.30;;;;;;5050386;28;20448;-67
2022/03/21 02:28:54;;;;;;;15.10;12.70;;;4.50;95.80;;;;;;5050567;28;20444;-67
2022/03/21 02:31:22;;;;;;;16.57;11.97;;;4.50;96.10;;;;;;5051279;28;20793;-67
2022/03/21 02:33:49;;;;;;;15.77;12.80;;;4.50;97.00;;;;;;5050887;28;20459;-67
2022/03/21 02:36:17;;;;;;;18.23;12.53;;;4.40;97.60;;;;;;5050290;28;20539;-67
2022/03/21 02:38:46;;;;;;;15.07;12.53;;;4.40;96.20;;;;;;5050502;28;21020;-67
2022/03/21 02:41:15;;;;;;;17.30;12.37;;;4.30;96.70;;;;;;5050677;28;20448;-67
2022/03/21 02:43:53;;;;;;;14.43;11.73;;;4.20;96.60;;;;;;5051090;28;20451;-66
2022/03/21 02:46:20;;;;;;;15.50;11.97;;;4.20;97.90;;;;;;5050536;28;20543;-66
2022/03/21 02:48:47;;;;;;;16.43;11.67;;;4.10;97.60;;;;;;5050934;28;20499;-67
2022/03/21 02:51:16;;;;;;;16.40;11.10;;;4.10;97.00;;;;;;5050919;28;20455;-66
2022/03/21 02:53:46;;;;;;;16.13;12.90;;;4.00;97.10;;;;;;5050861;28;20489;-67
2022/03/21 02:56:13;;;;;;;17.13;11.90;;;4.00;98.00;;;;;;5050619;28;20776;-67
2022/03/21 02:58:39;;;;;;;17.20;11.57;;;3.90;97.80;;;;;;5050010;28;20492;-67
2022/03/21 03:01:09;;;;;;;12.77;11.17;;;3.80;98.60;;;;;;5050569;28;20538;-66
2022/03/21 03:03:36;;;;;;;14.90;12.20;;;3.70;99.30;;;;;;5050603;28;20452;-67
2022/03/21 03:06:04;;;;;;;15.40;11.47;;;3.60;99.90;;;;;;5049746;28;20452;-66
2022/03/21 03:08:30;;;;;;;16.77;12.47;;;3.50;99.40;;;;;;5049763;28;20476;-65
2022/03/21 03:10:57;;;;;;;15.43;12.30;;;3.50;99.90;;;;;;5050422;28;20448;-66
2022/03/21 03:13:25;;;;;;;19.37;11.80;;;3.40;99.90;;;;;;5050312;28;20458;-67
2022/03/21 03:15:52;;;;;;;14.67;11.20;;;3.30;99.90;;;;;;5049620;28;20450;-66
2022/03/21 03:18:20;;;;;;;16.00;11.87;;;3.30;99.90;;;;;;5049726;28;21061;-66
2022/03/21 03:20:49;;;;;;;16.70;13.10;;;3.20;99.90;;;;;;5049928;28;20497;-67
2022/03/21 03:23:18;;;;;;;14.33;11.50;;;3.30;99.90;;;;;;5049957;28;20959;-66
2022/03/21 03:25:45;;;;;;;18.50;13.37;;;3.30;99.90;;;;;;5049133;28;20448;-66
2022/03/21 03:28:12;;;;;;;19.30;12.70;;;3.30;99.90;;;;;;5049567;28;20493;-67
2022/03/21 03:30:40;;;;;;;15.70;11.80;;;3.30;99.90;;;;;;5050083;28;20454;-66
2022/03/21 03:33:08;;;;;;;16.67;12.10;;;3.20;99.90;;;;;;5049897;28;20458;-66
2022/03/21 03:35:36;;;;;;;15.90;12.70;;;3.10;99.90;;;;;;5049277;28;20447;-67
2022/03/21 03:38:04;;;;;;;13.70;11.03;;;3.10;99.90;;;;;;5049634;28;20478;-66
2022/03/21 03:40:30;;;;;;;14.03;11.87;;;3.10;99.90;;;;;;5049980;28;20484;-66
2022/03/21 03:42:57;;;;;;;15.70;12.20;;;3.00;99.90;;;;;;5049664;28;20953;-67
2022/03/21 03:45:25;;;;;;;18.27;12.40;;;3.00;99.90;;;;;;5049132;28;20451;-67
2022/03/21 03:47:52;;;;;;;16.93;12.30;;;3.00;99.90;;;;;;5049163;28;20542;-67
2022/03/21 03:50:19;;;;;;;18.47;12.07;;;2.90;99.90;;;;;;5049795;28;20531;-68
2022/03/21 03:52:47;;;;;;;15.80;12.50;;;2.90;99.90;;;;;;5050143;28;20443;-66
2022/03/21 03:55:14;;;;;;;17.10;13.60;;;2.80;99.90;;;;;;5048850;28;20498;-67
2022/03/21 03:57:41;;;;;;;18.30;12.83;;;2.80;99.90;;;;;;5049341;28;20464;-67
2022/03/21 04:00:09;;;;;;;16.80;13.80;;;2.80;99.90;;;;;;5049753;28;20484;-67
2022/03/21 04:05:18;;;;;;;21.27;14.13;;;2.80;99.90;;;;;;5047763;28;20428;-67
2022/03/21 04:07:44;;;;;;;18.40;14.07;;;2.80;99.90;;;;;;5049260;28;20464;-67
2022/03/21 04:10:12;;;;;;;18.80;14.37;;;2.70;99.90;;;;;;5051470;28;20531;-67
2022/03/21 04:12:39;;;;;;;15.37;12.60;;;2.70;99.90;;;;;;5053944;28;20448;-67
2022/03/21 04:15:07;;;;;;;26.70;13.27;;;2.70;99.90;;;;;;5052942;28;20486;-67
2022/03/21 04:17:35;;;;;;;17.00;13.67;;;2.60;99.90;;;;;;5053559;28;20468;-67
2022/03/21 04:20:02;;;;;;;17.23;13.03;;;2.60;99.90;;;;;;5053850;28;20483;-68
2022/03/21 04:22:29;;;;;;;14.93;12.10;;;2.50;99.90;;;;;;5053704;28;20448;-66
2022/03/21 04:24:56;;;;;;;18.60;13.67;;;2.40;99.90;;;;;;5053006;28;20444;-66
2022/03/21 04:27:25;;;;;;;13.50;11.07;;;2.40;99.90;;;;;;5052880;28;20515;-67
2022/03/21 04:29:51;;;;;;;14.50;11.20;;;2.40;99.90;;;;;;5053497;28;20834;-67
2022/03/21 04:32:18;;;;;;;14.80;11.20;;;2.50;99.90;;;;;;5053783;28;20452;-67
2022/03/21 04:34:45;;;;;;;17.10;11.30;;;2.60;99.90;;;;;;5052815;28;20543;-67
2022/03/21 04:37:12;;;;;;;19.77;11.70;;;2.60;99.90;;;;;;5053573;28;20468;-67
2022/03/21 04:39:39;;;;;;;14.27;11.70;;;2.70;99.90;;;;;;5053047;28;20483;-67
2022/03/21 04:42:06;;;;;;;17.60;12.07;;;2.70;99.90;;;;;;5053066;28;20536;-67
2022/03/21 04:44:35;;;;;;;16.00;12.07;;;2.70;99.90;;;;;;5052697;28;20583;-67
2022/03/21 04:47:02;;;;;;;22.80;13.50;;;2.60;99.90;;;;;;5051173;28;20475;-70
2022/03/21 04:49:28;;;;;;;19.47;13.80;;;2.70;99.90;;;;;;5053330;28;20435;-67
2022/03/21 04:51:55;;;;;;;15.23;12.20;;;2.70;99.90;;;;;;5053209;28;20458;-67
2022/03/21 04:54:22;;;;;;;15.10;13.00;;;2.60;99.90;;;;;;5051769;28;20444;-66
2022/03/21 04:56:49;;;;;;;14.90;11.87;;;2.60;99.90;;;;;;5052991;28;20482;-67
2022/03/21 04:59:16;;;;;;;15.40;11.93;;;2.50;99.90;;;;;;5052353;28;20450;-66
2022/03/21 05:01:44;;;;;;;15.13;12.23;;;2.50;99.90;;;;;;5052695;28;21077;-66
2022/03/21 05:04:11;;;;;;;16.23;12.37;;;2.40;99.90;;;;;;5051768;28;20551;-67
2022/03/21 05:06:37;;;;;;;14.50;11.10;;;2.30;99.90;;;;;;5052624;28;20455;-67
2022/03/21 05:09:05;;;;;;;14.80;10.93;;;2.30;99.90;;;;;;5052119;28;20454;-67
2022/03/21 05:11:32;;;;;;;13.93;11.30;;;2.30;99.90;;;;;;5052346;28;20455;-66
2022/03/21 05:13:59;;;;;;;15.33;10.87;;;2.30;99.90;;;;;;5052302;28;20460;-66
2022/03/21 05:16:26;;;;;;;17.87;11.43;;;2.30;99.90;;;;;;5051685;28;20460;-66
2022/03/21 05:18:54;;;;;;;15.70;11.67;;;2.30;99.90;;;;;;5051841;28;20862;-66
2022/03/21 05:21:21;;;;;;;18.00;11.93;;;2.20;99.90;;;;;;5051610;28;20487;-65
2022/03/21 05:32:00;;;;;;;18.03;11.27;;;2.20;99.90;;;;;;5050946;28;20423;-66
2022/03/21 05:37:12;;;;;;;15.87;11.97;;;2.40;99.90;;;;;;5044782;28;20470;-68
2022/03/21 05:40:31;;;;;;;16.27;11.97;;;2.40;99.90;;;;;;5051060;28;20860;-66
2022/03/21 05:42:26;;;;;;;15.80;12.13;;;2.30;99.90;;;;;;5051510;28;20443;-66
2022/03/21 05:44:53;;;;;;;17.53;11.10;;;2.30;99.90;;;;;;5051188;28;20448;-67
2022/03/21 05:47:20;;;;;;;20.73;13.03;;;2.40;99.90;;;;;;5051571;28;20499;-67
2022/03/21 05:49:47;;;;;;;16.10;13.20;;;2.50;99.90;;;;;;5052072;28;20440;-67
2022/03/21 05:52:14;;;;;;;14.07;10.43;;;2.60;99.90;;;;;;5051572;28;20476;-67
2022/03/21 05:54:41;;;;;;;16.10;11.97;;;2.70;99.90;;;;;;5051413;28;20444;-67
2022/03/21 05:57:08;;;;;;;16.83;11.57;;;2.70;99.90;;;;;;5051417;28;20563;-67
2022/03/21 06:02:19;;;;;;;16.30;12.17;;;2.80;99.90;;;;;;5051509;28;20490;-68
2022/03/21 06:04:48;;;;;;;12.43;10.20;;;2.90;99.90;;;;;;5050416;28;20443;-67
2022/03/21 06:07:16;;;;;;;15.53;11.33;;;3.00;99.90;;;;;;5050994;28;20460;-67
2022/03/21 06:09:43;;;;;;;15.83;11.67;;;3.10;99.90;;;;;;5050743;28;20517;-66
2022/03/21 06:12:13;;;;;;;14.20;10.87;;;3.10;99.90;;;;;;5051178;28;20539;-68
2022/03/21 06:14:40;;;;;;;14.80;11.43;;;3.20;99.90;;;;;;5050310;28;21132;-66
2022/03/21 06:17:07;;;;;;;16.73;11.13;;;3.20;99.90;;;;;;5050886;28;20472;-66
2022/03/21 06:19:34;;;;;;;15.23;11.17;;;3.30;99.90;;;;;;5050179;28;20447;-66
2022/03/21 06:22:02;;;;;;;12.83;10.17;;;3.40;99.90;;;;;;5040208;28;20452;-64
2022/03/21 06:24:28;;;;;;;15.70;10.67;;;3.50;99.90;;;;;;5044202;28;21076;-66
2022/03/21 06:26:55;;;;;;;15.70;12.17;;;3.60;99.90;;;;;;5041038;28;21014;-65
2022/03/21 06:29:22;;;;;;;14.37;11.37;;;3.80;99.90;;;;;;5047581;28;20539;-65
2022/03/21 06:31:49;;;;;;;19.00;12.53;;;3.80;99.90;;;;;;5046941;28;20898;-65
2022/03/21 06:34:16;;;;;;;12.30;10.30;;;3.90;99.90;;;;;;5047804;28;21028;-63
2022/03/21 06:36:42;;;;;;;12.57;10.87;;;3.90;99.90;;;;;;5046140;28;20444;-66
2022/03/21 06:39:11;;;;;;;16.30;12.27;;;3.90;99.90;;;;;;5042584;28;21210;-66
2022/03/21 06:41:38;;;;;;;14.43;10.67;;;4.00;99.90;;;;;;5040733;28;20490;-67
2022/03/21 06:44:06;;;;;;;15.40;11.07;;;4.10;99.90;;;;;;5045995;28;20451;-65
2022/03/21 06:46:33;;;;;;;18.80;12.93;;;4.20;99.90;;;;;;5045757;28;20490;-66
2022/03/21 06:49:00;;;;;;;18.07;13.73;;;4.30;99.90;;;;;;5045412;28;20450;-66
2022/03/21 06:51:27;;;;;;;15.20;12.00;;;4.40;99.90;;;;;;5046254;28;20536;-66
2022/03/21 06:53:53;;;;;;;17.03;13.00;;;4.60;99.90;;;;;;5041796;28;20466;-65
2022/03/21 06:56:22;;;;;;;19.30;13.40;;;4.60;99.90;;;;;;5043670;28;20464;-66
2022/03/21 06:58:48;;;;;;;15.73;12.17;;;4.80;99.90;;;;;;5046719;28;20478;-66
2022/03/21 07:01:15;;;;;;;17.40;13.80;;;4.90;99.90;;;;;;5047971;28;20475;-66
2022/03/21 07:03:42;;;;;;;14.00;11.87;;;5.10;99.90;;;;;;5048398;28;20458;-68
2022/03/21 07:06:09;;;;;;;15.90;11.90;;;5.20;99.90;;;;;;5047165;28;20529;-66
2022/03/21 07:08:36;;;;;;;16.27;12.23;;;5.40;99.90;;;;;;5047196;28;20468;-66
2022/03/21 07:11:03;;;;;;;14.73;12.37;;;5.50;99.90;;;;;;5049159;28;20570;-66
2022/03/21 07:13:31;;;;;;;15.67;12.97;;;5.60;99.90;;;;;;5043454;28;20529;-63
2022/03/21 07:15:58;;;;;;;15.23;13.30;;;5.70;99.90;;;;;;5047486;28;20444;-65
2022/03/21 07:18:25;;;;;;;16.53;12.60;;;5.90;99.90;;;;;;5044046;28;20476;-65
2022/03/21 07:20:52;;;;;;;17.03;12.03;;;6.10;99.90;;;;;;5047862;28;20488;-65
2022/03/21 07:23:19;;;;;;;16.60;12.50;;;6.20;99.90;;;;;;5048586;28;20463;-65
2022/03/21 07:25:47;;;;;;;13.77;12.13;;;6.30;99.90;;;;;;5048080;28;20443;-65
2022/03/21 07:28:13;;;;;;;15.00;11.83;;;6.50;99.90;;;;;;5048529;28;20480;-66
2022/03/21 07:30:42;;;;;;;13.30;11.30;;;6.60;99.90;;;;;;5046198;28;20456;-65
2022/03/21 07:33:09;;;;;;;15.60;12.37;;;6.70;99.90;;;;;;5048969;28;20852;-66
2022/03/21 07:35:36;;;;;;;14.07;11.20;;;6.90;99.90;;;;;;5048898;28;20990;-65
2022/03/21 07:38:03;;;;;;;15.13;11.20;;;7.00;99.90;;;;;;5048438;28;20460;-65
2022/03/21 07:40:30;;;;;;;17.10;12.27;;;7.10;99.90;;;;;;5049251;28;20483;-65
2022/03/21 07:42:57;;;;;;;14.70;12.40;;;7.30;99.50;;;;;;5048529;28;20448;-65
2022/03/21 07:48:11;;;;;;;16.43;12.77;;;7.50;97.20;;;;;;5049154;28;20467;-65
2022/03/21 07:50:38;;;;;;;15.93;12.20;;;7.60;97.50;;;;;;5049572;28;20452;-65
2022/03/21 07:53:05;;;;;;;15.63;11.20;;;7.70;97.60;;;;;;5049468;28;20444;-65
2022/03/21 07:55:32;;;;;;;13.90;11.70;;;7.90;97.30;;;;;;5049035;28;21067;-65
2022/03/21 07:58:00;;;;;;;13.77;12.37;;;8.10;96.80;;;;;;5049131;28;20482;-65
2022/03/21 08:00:27;;;;;;;15.53;11.90;;;8.20;95.70;;;;;;5049471;28;20490;-65
2022/03/21 08:02:54;;;;;;;13.70;11.10;;;8.30;95.60;;;;;;5049409;28;20456;-65
2022/03/21 08:05:22;;;;;;;12.37;10.43;;;8.30;94.90;;;;;;5048644;28;20609;-65
2022/03/21 08:07:51;;;;;;;18.30;12.57;;;8.50;95.80;;;;;;5048945;28;20551;-65
2022/03/21 08:10:19;;;;;;;16.43;11.90;;;8.70;94.80;;;;;;5049627;28;20456;-65
2022/03/21 08:12:46;;;;;;;15.60;12.40;;;8.70;94.80;;;;;;5049353;28;21044;-66
2022/03/21 08:15:14;;;;;;;15.30;12.33;;;8.80;95.10;;;;;;5048667;28;20526;-65
2022/03/21 08:17:52;;;;;;;17.17;12.83;;;8.80;94.10;;;;;;5049013;28;20466;-65
2022/03/21 08:20:20;;;;;;;14.83;12.03;;;9.00;93.70;;;;;;5049604;28;20483;-65
2022/03/21 08:22:48;;;;;;;14.27;12.43;;;9.00;93.80;;;;;;5049683;28;20831;-65
2022/03/21 08:25:16;;;;;;;13.30;11.67;;;9.20;93.00;;;;;;5048713;28;20440;-65
2022/03/21 08:27:44;;;;;;;16.73;13.63;;;9.40;93.50;;;;;;5049127;28;20476;-65
2022/03/21 08:30:12;;;;;;;15.00;13.40;;;9.40;92.80;;;;;;5049537;28;20513;-65
2022/03/21 08:32:39;;;;;;;16.83;12.10;;;9.60;92.90;;;;;;5049367;28;20531;-66
2022/03/21 08:35:07;;;;;;;14.47;13.03;;;9.80;93.00;;;;;;5048367;28;20821;-64
2022/03/21 08:37:33;;;;;;;12.43;11.10;;;10.00;92.10;;;;;;5049044;28;20558;-65
2022/03/21 08:40:02;;;;;;;15.40;12.97;;;10.20;91.30;;;;;;5048748;28;21025;-65
2022/03/21 08:42:29;;;;;;;18.57;12.80;;;10.20;89.60;;;;;;5049001;28;21067;-65
2022/03/21 08:44:56;;;;;;;15.23;13.10;;;10.40;88.20;;;;;;5048211;28;20456;-65
2022/03/21 08:47:23;;;;;;;15.60;13.60;;;10.70;87.90;;;;;;5048931;28;20479;-65
2022/03/21 08:49:50;;;;;;;15.47;12.17;;;10.90;86.40;;;;;;5048861;28;20536;-65
2022/03/21 08:52:17;;;;;;;16.10;13.10;;;11.10;87.70;;;;;;5049165;28;20960;-65
2022/03/21 08:54:44;;;;;;;17.93;13.70;;;11.30;87.70;;;;;;5048681;28;20463;-65
2022/03/21 08:57:12;;;;;;;15.00;12.60;;;11.50;85.10;;;;;;5052500;28;20467;-65
2022/03/21 08:59:39;;;;;;;13.30;11.90;;;11.60;82.80;;;;;;5052261;28;20458;-66
2022/03/21 09:02:08;;;;;;;18.63;12.93;;;11.90;82.90;;;;;;5052781;28;20523;-64
2022/03/21 09:04:35;;;;;;;14.97;13.47;;;12.00;83.20;;;;;;5051770;28;20455;-66
2022/03/21 09:07:02;;;;;;;15.70;11.97;;;12.10;79.10;;;;;;5052054;28;20577;-66
2022/03/21 09:09:29;;;;;;;15.07;13.47;;;12.20;81.40;;;;;;5051954;28;20454;-65
2022/03/21 09:11:57;;;;;;;14.83;13.20;;;12.30;80.30;;;;;;5052347;28;20531;-65
2022/03/21 09:14:25;;;;;;;14.00;11.57;;;12.40;80.10;;;;;;5051559;28;20491;-65
2022/03/21 09:16:52;;;;;;;15.00;13.20;;;12.60;80.80;;;;;;5052420;28;20467;-65
2022/03/21 09:19:20;;;;;;;15.07;13.20;;;13.10;79.50;;;;;;5051920;28;20966;-66
2022/03/21 09:21:48;;;;;;;13.93;12.53;;;13.40;77.70;;;;;;5052155;28;20562;-63
2022/03/21 09:24:15;;;;;;;16.10;14.40;;;13.40;76.60;;;;;;5051482;28;20466;-64
2022/03/21 09:26:42;;;;;;;15.33;13.77;;;13.70;76.90;;;;;;5052059;28;20445;-64
2022/03/21 09:29:09;;;;;;;16.63;14.90;;;13.80;76.80;;;;;;5051620;28;20448;-65
2022/03/21 09:31:38;;;;;;;14.83;13.33;;;14.10;75.10;;;;;;5052043;28;20448;-65
2022/03/21 09:34:05;;;;;;;16.30;14.10;;;14.00;74.40;;;;;;5051211;28;20921;-64
2022/03/21 09:36:32;;;;;;;16.83;15.03;;;14.30;75.10;;;;;;5051662;28;20531;-64
2022/03/21 09:38:59;;;;;;;16.40;13.90;;;14.80;68.40;;;;;;5051496;28;20454;-65
2022/03/21 09:41:27;;;;;;;15.60;13.10;;;15.10;69.50;;;;;;5051653;28;20566;-65
2022/03/21 09:43:57;;;;;;;15.93;14.30;;;15.50;71.40;;;;;;5051804;28;20454;-64
2022/03/21 09:46:24;;;;;;;16.17;14.43;;;15.90;68.30;;;;;;5050879;28;20499;-65
2022/03/21 09:48:54;;;;;;;15.30;13.70;;;16.10;68.30;;;;;;5051249;28;20479;-64
2022/03/21 09:51:23;;;;;;;15.93;14.43;;;16.50;66.40;;;;;;5051617;28;20820;-65
2022/03/21 09:53:50;;;;;;;15.50;13.90;;;16.90;63.80;;;;;;5051273;28;20452;-64
2022/03/21 09:56:18;;;;;;;15.03;13.50;;;17.20;62.20;;;;;;5050915;28;20455;-65
2022/03/21 09:58:45;;;;;;;16.60;14.97;;;17.10;60.80;;;;;;5051235;28;20472;-65
2022/03/21 10:01:12;;;;;;;18.37;15.17;;;16.80;59.40;;;;;;5051567;28;20475;-65
2022/03/21 10:03:39;;;;;;;15.93;14.33;;;17.00;62.90;;;;;;5051663;28;20452;-64
2022/03/21 10:06:29;;;;;;;17.73;14.50;;;17.20;62.90;;;;;;5050587;28;20454;-64
2022/03/21 10:09:08;;;;;;;15.60;14.00;;;17.10;64.20;;;;;;5051167;28;20450;-65
2022/03/21 10:11:35;;;;;;;16.20;14.67;;;17.20;62.30;;;;;;5051683;28;20454;-65
2022/03/21 10:14:21;;;;;;;16.53;14.83;;;17.30;61.00;;;;;;5051414;28;20539;-64
2022/03/21 10:16:52;;;;;;;16.83;15.13;;;17.30;62.40;;;;;;5051639;28;20952;-65
2022/03/21 10:19:19;;;;;;;16.97;15.17;;;17.60;62.00;;;;;;5051213;28;20624;-65
2022/03/21 10:22:04;;;;;;;18.20;15.83;;;17.80;58.40;;;;;;5051336;28;20486;-65
2022/03/21 10:24:38;;;;;;;18.07;16.13;;;17.70;59.10;;;;;;5050574;28;20486;-64
2022/03/21 10:27:06;;;;;;;17.50;15.60;;;18.00;59.10;;;;;;5051178;28;20467;-64
2022/03/21 10:29:33;;;;;;;18.60;15.77;;;17.90;57.90;;;;;;5050868;28;20444;-65
2022/03/21 10:32:00;;;;;;;18.93;16.93;;;18.00;59.10;;;;;;5051177;28;20460;-65
2022/03/21 10:34:30;;;;;;;17.47;15.77;;;17.70;59.50;;;;;;5050338;28;20876;-65
2022/03/21 10:37:04;;;;;;;18.50;16.60;;;17.40;58.20;;;;;;5050824;28;20582;-65
2022/03/21 10:39:32;;;;;;;16.73;14.93;;;17.30;59.70;;;;;;5050579;28;20447;-65
2022/03/21 10:42:01;;;;;;;18.90;16.90;;;17.60;59.10;;;;;;5050827;28;20957;-65
2022/03/21 10:44:29;;;;;;;18.17;15.63;;;17.80;58.50;;;;;;5050113;28;20535;-65
2022/03/21 10:46:58;;;;;;;19.20;16.87;;;17.70;56.60;;;;;;5050666;28;20575;-66
2022/03/21 10:49:30;;;;;;;18.13;16.33;;;17.60;58.80;;;;;;5050367;28;20630;-66
2022/03/21 10:51:57;;;;;;;18.20;16.40;;;18.10;59.80;;;;;;5050532;28;20459;-66
2022/03/21 10:54:45;;;;;;;18.47;16.47;;;18.70;59.00;;;;;;5049675;28;20452;-65
2022/03/21 10:57:31;;;;;;;18.30;16.30;;;19.10;57.90;;;;;;5050790;28;20464;-66
2022/03/21 11:00:18;;;;;;;19.30;17.30;;;19.60;57.50;;;;;;5050391;28;20501;-65
2022/03/21 11:02:54;;;;;;;18.40;16.60;;;20.40;55.60;;;;;;5050485;28;20493;-65
2022/03/21 11:05:22;;;;;;;20.30;18.10;;;20.80;54.50;;;;;;5049698;28;20448;-66
2022/03/21 11:07:53;;;;;;;18.20;16.30;;;19.90;54.30;;;;;;5050047;28;20472;-65
2022/03/21 11:10:22;;;;;;;18.33;16.47;;;19.60;57.60;;;;;;5050173;28;20957;-65
2022/03/21 11:12:49;;;;;;;18.37;16.43;;;19.80;55.30;;;;;;5050088;28;20448;-64
2022/03/21 11:15:17;;;;;;;22.30;16.60;;;19.80;55.00;;;;;;5049771;28;20443;-66
2022/03/21 11:17:45;;;;;;;17.30;15.60;;;20.10;54.70;;;;;;5050180;28;21029;-64
2022/03/21 11:20:15;;;;;;;19.30;17.27;;;19.00;53.20;;;;;;5049724;28;20488;-66
2022/03/21 11:22:43;;;;;;;18.20;15.93;;;18.70;55.10;;;;;;5050023;28;20488;-66
2022/03/21 11:25:12;;;;;;;19.33;15.80;;;18.60;56.30;;;;;;5049120;28;20452;-66
2022/03/21 11:28:02;;;;;;;18.10;16.17;;;19.20;57.80;;;;;;5049873;28;20529;-66
2022/03/21 11:30:42;;;;;;;17.70;15.97;;;19.70;56.50;;;;;;5050047;28;20444;-66
2022/03/21 11:33:20;;;;;;;19.07;16.80;;;19.70;54.60;;;;;;5050211;28;20440;-66
2022/03/21 11:35:52;;;;;;;19.47;17.20;;;20.20;54.20;;;;;;5049047;28;20444;-66
2022/03/21 11:38:23;;;;;;;17.03;15.17;;;20.70;52.50;;;;;;5049454;28;20468;-66
2022/03/21 11:40:51;;;;;;;18.73;16.93;;;21.20;52.80;;;;;;5049658;28;20451;-66
2022/03/21 11:43:30;;;;;;;19.63;17.37;;;21.50;50.20;;;;;;5049665;28;20570;-66
2022/03/21 11:45:57;;;;;;;17.60;15.90;;;21.10;50.40;;;;;;5048900;28;20443;-65
2022/03/21 11:48:37;;;;;;;18.40;16.60;;;21.10;52.00;;;;;;5049435;28;20567;-65
2022/03/21 11:51:36;;;;;;;18.00;16.20;;;21.50;53.10;;;;;;5049590;28;20455;-66
2022/03/21 11:54:06;;;;;;;19.80;17.37;;;22.30;52.50;;;;;;5048960;28;20456;-66
2022/03/21 11:56:57;;;;;;;20.23;18.07;;;22.80;48.60;;;;;;5049699;28;20815;-65
2022/03/21 11:59:51;;;;;;;20.30;17.80;;;23.70;48.60;;;;;;5049723;28;20534;-66
2022/03/21 12:03:00;;;;;;;19.30;16.80;;;24.00;46.20;;;;;;5049868;28;20526;-66
2022/03/21 12:05:56;;;;;;;20.03;18.20;;;23.70;48.70;;;;;;5049318;28;20879;-66
2022/03/21 12:08:51;;;;;;;16.67;15.00;;;24.50;47.50;;;;;;5049306;28;20499;-66
2022/03/21 12:11:54;;;;;;;18.27;16.47;;;25.10;45.90;;;;;;5049855;28;20493;-66
2022/03/21 12:14:29;;;;;;;19.47;17.43;;;24.80;43.80;;;;;;5023542;28;20467;-66
2022/03/21 12:17:41;;;;;;;17.73;15.93;;;24.80;44.90;;;;;;5049177;28;20525;-66
2022/03/21 12:20:11;;;;;;;19.37;16.47;;;25.10;43.70;;;;;;5049122;28;21134;-66
2022/03/21 12:22:48;;;;;;;20.17;16.60;;;25.40;43.90;;;;;;5046195;28;20495;-66
2022/03/21 12:25:17;;;;;;;17.63;15.93;;;25.20;41.50;;;;;;5047777;28;20463;-66
2022/03/21 12:27:45;;;;;;;17.97;16.17;;;25.30;42.30;;;;;;5048669;28;20491;-66
2022/03/21 12:30:49;;;;;;;17.90;16.13;;;25.30;43.00;;;;;;5048492;28;20451;-66
2022/03/21 12:33:29;;;;;;;17.57;15.87;;;25.20;43.70;;;;;;5050913;28;20448;-66
2022/03/21 12:36:04;;;;;;;17.70;16.00;;;24.00;40.90;;;;;;5051662;28;20523;-66
2022/03/21 12:38:34;;;;;;;16.60;14.90;;;23.30;42.20;;;;;;5052297;28;20573;-66
2022/03/21 12:41:03;;;;;;;16.10;14.17;;;22.80;42.20;;;;;;5052568;28;20452;-66
2022/03/21 12:43:32;;;;;;;15.97;14.27;;;22.40;43.00;;;;;;5047920;28;20480;-66
2022/03/21 12:46:11;;;;;;;17.37;15.57;;;22.00;44.90;;;;;;5050452;28;20447;-67
2022/03/21 12:48:40;;;;;;;16.10;14.50;;;21.80;43.50;;;;;;5051526;28;20471;-66
2022/03/21 12:51:09;;;;;;;16.10;14.50;;;21.70;45.70;;;;;;5051790;28;20795;-65
2022/03/21 12:53:39;;;;;;;16.87;14.57;;;22.60;46.30;;;;;;5052695;28;20790;-66
2022/03/21 12:56:09;;;;;;;15.03;13.53;;;23.10;43.10;;;;;;5051092;28;20514;-66
2022/03/21 12:58:36;;;;;;;16.13;13.80;;;22.30;45.00;;;;;;5052308;28;20471;-66
2022/03/21 13:01:04;;;;;;;17.80;15.57;;;22.10;44.40;;;;;;5051826;28;20436;-65
2022/03/21 13:03:31;;;;;;;16.63;14.87;;;21.90;43.50;;;;;;5052355;28;20491;-66
2022/03/21 13:11:32;;;;;;;17.30;13.43;;;21.70;48.80;;;;;;5052805;28;20423;-66